Itaguacu da Bahia, Brazil
Current Conditions -  °F | °C
As of 9:00 AM on Thursday 30 Oct 2014 (Local Time) from SBPL Reporting Station
Scattered Clouds Scattered Clouds  
Wind Chill: 88°   Ceiling: Unl
Heat Index: 89°   Visibility: 6mi
Dew Point: 64°   Wind: 16mph
Humidity: 46%   Direction: 100°E
Pressure: 30"   Gusts: NA
Location:  11.01°S, 42.4°W
Report Text: SBPL 301200Z 10014KT 9999 SCT020 31/18 Q1016
Loading
Personal Weather Stations






























Interactive Weather Map
Tropical Storm Tracking
New forecast layout! Learn more

10-Day Weather Forecast

Advertisements
Track Severe Weather on mobile